createdAt,value
2019-04-16T00:02:28.600Z,99.90
2019-04-16T00:05:13.120Z,99.90
2019-04-16T00:07:49.837Z,99.90
2019-04-16T00:10:49.132Z,99.90
2019-04-16T00:13:39.114Z,99.90
2019-04-16T00:16:12.882Z,99.90
2019-04-16T00:18:56.338Z,99.90
2019-04-16T00:21:28.203Z,99.90
2019-04-16T00:24:19.286Z,99.90
2019-04-16T00:26:57.815Z,99.90
2019-04-16T00:29:25.617Z,99.90
2019-04-16T00:32:08.092Z,99.90
2019-04-16T00:34:38.529Z,99.90
2019-04-16T00:37:09.689Z,99.90
2019-04-16T00:39:40.871Z,99.90
2019-04-16T00:42:12.034Z,99.90
2019-04-16T00:44:43.198Z,99.90
2019-04-16T00:47:14.360Z,99.90
2019-04-16T00:49:45.540Z,99.90
2019-04-16T00:52:16.707Z,99.90
2019-04-16T00:54:47.866Z,99.90
2019-04-16T00:57:18.961Z,99.90
2019-04-16T00:59:55.110Z,99.90
2019-04-16T01:02:22.860Z,99.90
2019-04-16T01:04:53.979Z,99.90
2019-04-16T01:07:25.145Z,99.90
2019-04-16T01:09:56.613Z,99.90
2019-04-16T01:12:27.830Z,99.90
2019-04-16T01:15:00.892Z,99.90
2019-04-16T01:17:33.434Z,99.90
2019-04-16T01:20:04.918Z,99.90
2019-04-16T01:22:36.060Z,99.90
2019-04-16T01:25:07.755Z,99.90
2019-04-16T01:27:42.999Z,99.90
2019-04-16T01:30:15.984Z,99.90
2019-04-16T01:32:55.173Z,99.90
2019-04-16T01:35:52.611Z,99.90
2019-04-16T01:38:31.847Z,99.90
2019-04-16T01:41:05.161Z,99.90
2019-04-16T01:43:36.345Z,99.90
2019-04-16T01:46:07.447Z,99.90
2019-04-16T01:48:39.648Z,99.90
2019-04-16T01:51:12.660Z,99.90
2019-04-16T01:53:43.641Z,99.90
2019-04-16T01:56:14.822Z,99.90
2019-04-16T01:58:46.023Z,99.90
2019-04-16T02:01:17.337Z,99.90
2019-04-16T02:03:49.537Z,99.90
2019-04-16T02:06:25.667Z,99.90
2019-04-16T02:08:53.716Z,99.90
2019-04-16T02:11:24.887Z,99.90
2019-04-16T02:13:56.883Z,99.90
2019-04-16T02:16:28.071Z,99.90
2019-04-16T02:19:01.375Z,99.90
2019-04-16T02:21:31.961Z,99.90
2019-04-16T02:24:03.168Z,99.90
2019-04-16T02:26:34.360Z,99.90
2019-04-16T02:29:05.651Z,99.90
2019-04-16T02:31:36.741Z,99.90
2019-04-16T02:34:07.839Z,99.90
2019-04-16T02:36:38.986Z,99.90
2019-04-16T02:39:10.136Z,99.90
2019-04-16T02:41:41.277Z,99.90
2019-04-16T02:44:15.935Z,99.90
2019-04-16T02:46:45.234Z,99.90
2019-04-16T02:49:16.436Z,99.90
2019-04-16T02:51:56.003Z,99.90
2019-04-16T02:54:38.090Z,99.90
2019-04-16T02:57:35.035Z,99.90
2019-04-16T03:00:17.602Z,99.90
2019-04-16T03:03:13.609Z,99.90
2019-04-16T03:05:47.548Z,99.90
2019-04-16T03:08:18.713Z,99.90
2019-04-16T03:10:50.209Z,99.90
2019-04-16T03:13:23.388Z,99.90
2019-04-16T03:16:23.338Z,99.90
2019-04-16T03:19:02.200Z,99.90
2019-04-16T03:21:33.384Z,99.90
2019-04-16T03:24:08.005Z,99.90
2019-04-16T03:26:37.477Z,99.90
2019-04-16T03:29:08.646Z,99.90
2019-04-16T03:31:39.771Z,99.90
2019-04-16T03:34:10.875Z,99.90
2019-04-16T03:36:42.065Z,99.90
2019-04-16T03:39:14.050Z,99.90
2019-04-16T03:41:45.376Z,99.90
2019-04-16T03:44:16.552Z,99.90
2019-04-16T03:46:47.807Z,99.90
2019-04-16T03:49:18.847Z,99.90
2019-04-16T03:51:51.108Z,99.90
2019-04-16T03:54:22.612Z,99.90
2019-04-16T03:56:54.481Z,99.90
2019-04-16T03:59:25.615Z,99.90
2019-04-16T04:01:56.879Z,99.90
2019-04-16T04:04:29.253Z,99.90
2019-04-16T04:07:00.931Z,99.90
2019-04-16T04:09:32.185Z,99.90
2019-04-16T04:12:03.327Z,99.90
2019-04-16T04:14:34.456Z,99.90
2019-04-16T04:17:07.069Z,99.90
2019-04-16T04:19:38.736Z,99.90
2019-04-16T04:22:10.013Z,99.90
2019-04-16T04:24:41.234Z,99.90
2019-04-16T04:27:13.970Z,99.90
2019-04-16T04:29:46.471Z,99.90
2019-04-16T04:32:17.910Z,99.90
2019-04-16T04:34:49.581Z,99.90
2019-04-16T04:37:20.797Z,99.90
2019-04-16T04:39:51.986Z,99.90
2019-04-16T04:42:25.645Z,99.90
2019-04-16T04:44:57.074Z,99.90
2019-04-16T04:47:28.267Z,99.90
2019-04-16T04:50:02.906Z,99.90
2019-04-16T04:52:32.368Z,99.90
2019-04-16T04:55:03.634Z,99.90
2019-04-16T04:57:34.823Z,99.90
2019-04-16T05:00:08.466Z,99.90
2019-04-16T05:02:40.240Z,99.90
2019-04-16T05:05:33.357Z,99.90
2019-04-16T05:08:04.561Z,99.90
2019-04-16T05:10:39.820Z,99.90
2019-04-16T05:13:08.517Z,99.90
2019-04-16T05:15:39.688Z,99.90
2019-04-16T05:18:10.994Z,99.90
2019-04-16T05:20:46.767Z,99.90
2019-04-16T05:23:14.902Z,99.90
2019-04-16T05:25:46.122Z,99.90
2019-04-16T05:28:17.278Z,99.90
2019-04-16T05:30:51.842Z,99.90
2019-04-16T05:33:21.283Z,99.90
2019-04-16T05:35:52.401Z,99.90
2019-04-16T05:38:24.755Z,99.90
2019-04-16T05:40:56.104Z,99.90
2019-04-16T05:43:30.008Z,99.90
2019-04-16T05:46:00.184Z,99.90
2019-04-16T05:48:31.343Z,99.90
2019-04-16T05:51:03.551Z,99.90
2019-04-16T05:53:37.371Z,99.90
2019-04-16T05:56:36.546Z,99.90
2019-04-16T05:59:07.764Z,99.90
2019-04-16T06:01:46.437Z,99.90
2019-04-16T06:04:17.624Z,99.90
2019-04-16T06:06:48.827Z,99.90
2019-04-16T06:09:20.014Z,99.90
2019-04-16T06:11:51.146Z,99.90
2019-04-16T06:14:49.736Z,99.90
2019-04-16T06:17:32.826Z,99.90
2019-04-16T06:20:28.964Z,99.90
2019-04-16T06:23:24.805Z,99.90
2019-04-16T06:26:02.755Z,99.90
2019-04-16T06:28:55.087Z,99.90
2019-04-16T06:31:39.215Z,99.90
2019-04-16T06:34:18.926Z,99.90
2019-04-16T06:36:58.172Z,99.90
2019-04-16T06:39:48.298Z,99.10
2019-04-16T06:42:38.432Z,94.10
2019-04-16T06:45:28.613Z,96.20
2019-04-16T06:48:05.157Z,95.30
2019-04-16T06:51:13.301Z,96.40
2019-04-16T06:54:03.400Z,93.50
2019-04-16T06:56:59.476Z,90.90
2019-04-16T06:59:40.721Z,89.20
2019-04-16T07:02:30.787Z,90.00
2019-04-16T07:05:20.952Z,86.40
2019-04-16T07:08:36.339Z,80.60
2019-04-16T07:10:58.462Z,76.10
2019-04-16T07:13:29.827Z,79.20
2019-04-16T07:16:01.038Z,83.00
2019-04-16T07:18:32.224Z,78.70
2019-04-16T07:21:03.510Z,76.50
2019-04-16T07:23:34.965Z,78.60
2019-04-16T07:26:06.788Z,72.00
2019-04-16T07:28:45.637Z,73.10
2019-04-16T07:31:33.288Z,71.10
2019-04-16T07:34:15.124Z,70.30
2019-04-16T07:37:03.853Z,71.60
2019-04-16T07:39:56.744Z,68.90
2019-04-16T07:42:52.180Z,68.60
2019-04-16T07:45:38.486Z,66.60
2019-04-16T07:48:32.891Z,68.30
2019-04-16T07:51:28.790Z,68.00
2019-04-16T07:54:22.940Z,65.20
2019-04-16T07:56:55.332Z,63.60
2019-04-16T07:59:26.535Z,62.40
2019-04-16T08:01:57.871Z,63.30
2019-04-16T08:04:35.229Z,62.60
2019-04-16T08:07:02.971Z,59.80
2019-04-16T08:09:34.191Z,59.10
2019-04-16T08:12:10.891Z,58.20
2019-04-16T08:14:38.507Z,58.00
2019-04-16T08:17:09.793Z,60.20
2019-04-16T08:19:41.180Z,57.70
2019-04-16T08:22:15.437Z,58.70
2019-04-16T08:24:48.935Z,57.80
2019-04-16T08:27:20.192Z,57.40
2019-04-16T08:29:51.327Z,55.90
2019-04-16T08:32:25.631Z,56.80
2019-04-16T08:34:55.744Z,55.70
2019-04-16T08:37:26.963Z,55.80
2019-04-16T08:39:58.287Z,55.50
2019-04-16T08:42:38.228Z,54.80
2019-04-16T08:45:07.611Z,53.50
2019-04-16T08:47:35.313Z,51.40
2019-04-16T08:50:06.678Z,51.90
2019-04-16T08:52:38.528Z,52.50
2019-04-16T08:55:10.950Z,52.40
2019-04-16T08:57:42.193Z,52.40
2019-04-16T09:00:15.412Z,51.00
2019-04-16T09:02:46.888Z,52.90
2019-04-16T09:05:18.244Z,51.80
2019-04-16T09:07:51.051Z,52.30
2019-04-16T09:10:24.053Z,52.10
2019-04-16T09:13:04.329Z,52.20
2019-04-16T09:15:34.219Z,52.10
2019-04-16T09:18:21.254Z,51.30
2019-04-16T09:20:52.553Z,50.70
2019-04-16T09:23:26.688Z,50.70
2019-04-16T09:26:13.458Z,51.20
2019-04-16T09:29:08.128Z,50.90
2019-04-16T09:32:03.437Z,49.60
2019-04-16T09:34:53.464Z,48.70
2019-04-16T09:37:41.923Z,49.30
2019-04-16T09:40:50.047Z,49.00
2019-04-16T09:43:22.971Z,49.70
2019-04-16T09:45:54.185Z,49.30
2019-04-16T09:48:26.746Z,47.80
2019-04-16T09:50:58.049Z,48.80
2019-04-16T09:53:34.114Z,48.20
2019-04-16T09:56:23.420Z,48.20
2019-04-16T09:58:53.975Z,48.50
2019-04-16T10:01:28.675Z,48.20
2019-04-16T10:03:59.918Z,48.20
2019-04-16T10:06:31.300Z,46.60
2019-04-16T10:09:03.595Z,47.90
2019-04-16T10:11:35.743Z,46.20
2019-04-16T10:14:08.057Z,46.10
2019-04-16T10:16:39.247Z,46.80
2019-04-16T10:19:10.795Z,45.70
2019-04-16T10:21:42.910Z,46.00
2019-04-16T10:24:36.191Z,46.30
2019-04-16T10:27:08.751Z,46.90
2019-04-16T10:29:40.161Z,45.30
2019-04-16T10:32:12.203Z,46.10
2019-04-16T10:34:44.496Z,46.20
2019-04-16T10:37:15.937Z,46.30
2019-04-16T10:39:55.613Z,45.80
2019-04-16T10:43:05.156Z,44.50
2019-04-16T10:46:05.298Z,45.50
2019-04-16T10:48:54.552Z,46.60
2019-04-16T10:51:50.539Z,46.00
2019-04-16T10:54:37.263Z,44.50
2019-04-16T10:57:27.324Z,45.20
2019-04-16T11:00:20.457Z,45.20
2019-04-16T11:02:56.226Z,42.90
2019-04-16T11:05:46.272Z,42.20
2019-04-16T11:08:17.844Z,41.80
2019-04-16T11:10:49.032Z,42.20
2019-04-16T11:13:35.470Z,43.40
2019-04-16T11:16:13.448Z,42.80
2019-04-16T11:18:45.395Z,43.60
2019-04-16T11:21:17.062Z,42.60
2019-04-16T11:23:49.057Z,42.10
2019-04-16T11:26:20.248Z,42.40
2019-04-16T11:28:51.560Z,43.70
2019-04-16T11:31:24.585Z,42.30
2019-04-16T11:33:55.861Z,42.00
2019-04-16T11:36:30.636Z,43.00
2019-04-16T11:39:00.208Z,41.40
2019-04-16T11:41:31.352Z,42.50
2019-04-16T11:44:15.065Z,40.10
2019-04-16T11:46:35.439Z,40.10
2019-04-16T11:49:06.667Z,39.60
2019-04-16T11:51:37.927Z,40.50
2019-04-16T11:54:11.669Z,40.40
2019-04-16T11:56:44.266Z,40.70
2019-04-16T11:59:15.455Z,41.70
2019-04-16T12:01:54.855Z,41.80
2019-04-16T12:04:47.976Z,40.30
2019-04-16T12:07:36.506Z,39.80
2019-04-16T12:10:36.755Z,40.10
2019-04-16T12:13:17.493Z,40.00
2019-04-16T12:16:13.310Z,38.20
2019-04-16T12:19:16.357Z,39.30
2019-04-16T12:22:05.197Z,40.00
2019-04-16T12:25:01.103Z,38.90
2019-04-16T12:27:49.887Z,40.30
2019-04-16T12:30:40.098Z,39.30
2019-04-16T12:33:29.418Z,38.80
2019-04-16T12:36:23.686Z,38.10
2019-04-16T12:39:10.136Z,38.80
2019-04-16T12:42:00.716Z,38.90
2019-04-16T12:44:51.311Z,38.80
2019-04-16T12:47:44.960Z,39.10
2019-04-16T12:50:41.318Z,38.80
2019-04-16T12:53:32.132Z,38.90
2019-04-16T12:56:15.333Z,39.70
2019-04-16T12:59:08.239Z,39.40
2019-04-16T13:02:02.738Z,38.90
2019-04-16T13:05:05.124Z,40.60
2019-04-16T13:07:50.173Z,39.20
2019-04-16T13:10:49.508Z,39.80
2019-04-16T13:13:45.360Z,38.60
2019-04-16T13:16:19.783Z,38.70
2019-04-16T13:19:22.237Z,38.90
2019-04-16T13:21:59.796Z,36.90
2019-04-16T13:24:41.728Z,37.20
2019-04-16T13:27:21.596Z,36.40
2019-04-16T13:29:52.797Z,36.30
2019-04-16T13:32:27.587Z,37.40
2019-04-16T13:34:58.149Z,38.30
2019-04-16T13:37:36.883Z,40.30
2019-04-16T13:40:05.895Z,37.50
2019-04-16T13:42:37.249Z,37.30
2019-04-16T13:45:21.793Z,37.90
2019-04-16T13:47:55.939Z,38.30
2019-04-16T13:50:41.972Z,38.30
2019-04-16T13:53:31.047Z,36.80
2019-04-16T13:56:26.962Z,37.00
2019-04-16T13:59:17.247Z,37.50
2019-04-16T14:02:22.301Z,38.10
2019-04-16T14:04:53.721Z,36.90
2019-04-16T14:07:25.568Z,34.70
2019-04-16T14:09:57.048Z,36.10
2019-04-16T14:12:41.623Z,36.60
2019-04-16T14:15:01.584Z,37.00
2019-04-16T14:17:35.030Z,35.50
2019-04-16T14:20:08.632Z,35.60
2019-04-16T14:22:39.644Z,36.30
2019-04-16T14:25:11.451Z,35.40
2019-04-16T14:27:42.659Z,35.30
2019-04-16T14:30:18.421Z,36.60
2019-04-16T14:32:49.641Z,35.70
2019-04-16T14:35:32.952Z,35.50
2019-04-16T14:37:56.725Z,34.90
2019-04-16T14:40:30.635Z,35.00
2019-04-16T14:43:01.904Z,36.00
2019-04-16T14:45:56.992Z,35.30
2019-04-16T14:48:15.585Z,35.20
2019-04-16T14:50:46.797Z,34.60
2019-04-16T14:53:34.564Z,35.60
2019-04-16T14:56:12.492Z,35.50
2019-04-16T14:59:29.891Z,34.50
2019-04-16T15:01:57.161Z,34.60
2019-04-16T15:04:33.755Z,33.90
2019-04-16T15:07:44.251Z,34.30
2019-04-16T15:10:34.901Z,35.00
2019-04-16T15:13:27.682Z,34.60
2019-04-16T15:16:13.701Z,34.60
2019-04-16T15:19:00.938Z,34.50
2019-04-16T15:22:06.149Z,35.20
2019-04-16T15:24:44.904Z,33.70
2019-04-16T15:27:53.171Z,33.30
2019-04-16T15:30:43.347Z,34.20
2019-04-16T15:33:38.803Z,35.10
2019-04-16T15:36:19.765Z,35.80
2019-04-16T15:39:04.532Z,35.50
2019-04-16T15:41:58.138Z,35.10
2019-04-16T15:44:33.395Z,34.50
2019-04-16T15:47:21.009Z,34.30
2019-04-16T15:50:03.962Z,34.80
2019-04-16T15:53:00.885Z,34.10
2019-04-16T15:55:50.035Z,34.50
2019-04-16T15:58:40.240Z,33.90
2019-04-16T16:01:37.666Z,34.30
2019-04-16T16:04:24.267Z,34.80
2019-04-16T16:06:59.556Z,35.60
2019-04-16T16:09:49.747Z,35.30
2019-04-16T16:12:26.326Z,36.00
2019-04-16T16:14:58.724Z,36.60
2019-04-16T16:17:30.375Z,38.10
2019-04-16T16:20:01.795Z,38.90
2019-04-16T16:22:34.089Z,39.10
2019-04-16T16:25:06.571Z,40.30
2019-04-16T16:27:44.079Z,41.00
2019-04-16T16:30:14.858Z,42.20
2019-04-16T16:32:44.962Z,42.70
2019-04-16T16:35:17.775Z,43.80
2019-04-16T16:37:49.267Z,44.20
2019-04-16T16:40:20.754Z,44.90
2019-04-16T16:42:52.180Z,44.70
2019-04-16T16:45:29.057Z,44.80
2019-04-16T16:48:00.299Z,45.50
2019-04-16T16:50:31.586Z,45.90
2019-04-16T16:53:18.658Z,46.10
2019-04-16T16:55:55.396Z,46.20
2019-04-16T16:58:44.582Z,47.20
2019-04-16T17:01:36.813Z,47.60
2019-04-16T17:04:22.769Z,47.60
2019-04-16T17:06:54.104Z,48.20
2019-04-16T17:09:31.216Z,49.00
2019-04-16T17:12:02.655Z,49.20
2019-04-16T17:14:37.730Z,49.50
2019-04-16T17:17:14.068Z,50.00
2019-04-16T17:19:41.266Z,50.60
2019-04-16T17:22:14.725Z,51.00
2019-04-16T17:24:47.365Z,51.30
2019-04-16T17:27:18.674Z,52.00
2019-04-16T17:29:50.926Z,52.60
2019-04-16T17:32:23.094Z,52.80
2019-04-16T17:34:54.912Z,53.10
2019-04-16T17:37:28.677Z,54.00
2019-04-16T17:40:16.101Z,54.00
2019-04-16T17:42:45.228Z,54.70
2019-04-16T17:45:37.986Z,55.00
2019-04-16T17:48:27.418Z,55.60
2019-04-16T17:51:16.485Z,56.20
2019-04-16T17:53:58.429Z,56.80
2019-04-16T17:56:57.968Z,57.70
2019-04-16T17:59:35.107Z,57.80
2019-04-16T18:02:37.346Z,58.20
2019-04-16T18:05:15.431Z,58.10
2019-04-16T18:08:14.525Z,58.70
2019-04-16T18:11:09.970Z,58.70
2019-04-16T18:14:06.615Z,58.90
2019-04-16T18:16:56.860Z,58.70
2019-04-16T18:19:59.089Z,59.20
2019-04-16T18:22:41.881Z,59.40
2019-04-16T18:25:27.816Z,59.40
2019-04-16T18:28:12.435Z,59.70
2019-04-16T18:30:47.678Z,60.10
2019-04-16T18:33:53.667Z,60.80
2019-04-16T18:36:30.091Z,61.50
2019-04-16T18:39:19.381Z,61.70
2019-04-16T18:42:07.993Z,62.30
2019-04-16T18:45:10.550Z,62.00
2019-04-16T18:48:04.676Z,62.60
2019-04-16T18:50:31.419Z,62.80
2019-04-16T18:53:02.773Z,62.80
2019-04-16T18:55:35.779Z,63.20
2019-04-16T18:58:07.509Z,63.60
2019-04-16T19:00:47.484Z,63.80
2019-04-16T19:03:21.082Z,64.00
2019-04-16T19:05:52.484Z,64.20
2019-04-16T19:08:40.494Z,65.10
2019-04-16T19:10:58.744Z,65.30
2019-04-16T19:13:30.182Z,65.40
2019-04-16T19:16:02.710Z,65.10
2019-04-16T19:18:33.958Z,65.10
2019-04-16T19:21:05.833Z,65.30
2019-04-16T19:23:37.204Z,65.40
2019-04-16T19:26:08.582Z,65.80
2019-04-16T19:28:45.422Z,65.90
2019-04-16T19:31:15.621Z,65.90
2019-04-16T19:33:46.995Z,66.50
2019-04-16T19:36:19.744Z,66.70
2019-04-16T19:38:51.431Z,67.00
2019-04-16T19:41:24.558Z,67.20
2019-04-16T19:43:56.280Z,67.10
2019-04-16T19:46:29.308Z,67.50
2019-04-16T19:49:01.413Z,67.80
2019-04-16T19:51:37.883Z,68.20
2019-04-16T19:54:08.329Z,68.50
2019-04-16T19:56:39.940Z,69.00
2019-04-16T19:59:11.346Z,69.70
2019-04-16T20:01:42.957Z,70.10
2019-04-16T20:04:14.442Z,70.20
2019-04-16T20:06:45.978Z,70.20
2019-04-16T20:09:17.301Z,71.00
2019-04-16T20:11:48.642Z,71.70
2019-04-16T20:14:20.026Z,72.20
2019-04-16T20:16:51.613Z,72.90
2019-04-16T20:19:25.682Z,73.60
2019-04-16T20:21:57.262Z,74.50
2019-04-16T20:24:29.004Z,74.70
2019-04-16T20:27:04.889Z,75.40
2019-04-16T20:29:33.874Z,76.40
2019-04-16T20:32:05.490Z,77.30
2019-04-16T20:34:37.174Z,78.30
2019-04-16T20:37:09.871Z,79.00
2019-04-16T20:39:41.756Z,79.70
2019-04-16T20:42:14.289Z,81.10
2019-04-16T20:44:45.724Z,81.90
2019-04-16T20:47:17.235Z,82.50
2019-04-16T20:49:49.140Z,83.30
2019-04-16T20:52:21.445Z,84.20
2019-04-16T20:54:54.276Z,84.90
2019-04-16T20:57:26.783Z,85.80
2019-04-16T20:59:58.315Z,87.60
2019-04-16T21:02:31.849Z,88.60
2019-04-16T21:05:04.624Z,89.90
2019-04-16T21:07:36.261Z,90.50
2019-04-16T21:10:08.287Z,91.70
2019-04-16T21:12:39.671Z,91.90
2019-04-16T21:15:12.683Z,92.80
2019-04-16T21:17:43.954Z,92.60
2019-04-16T21:20:19.348Z,93.30
2019-04-16T21:22:48.209Z,93.60
2019-04-16T21:25:19.478Z,93.90
2019-04-16T21:27:57.727Z,94.20
2019-04-16T21:30:29.176Z,94.60
2019-04-16T21:33:12.546Z,94.60
2019-04-16T21:35:46.911Z,94.90
2019-04-16T21:38:37.075Z,95.80
2019-04-16T21:41:08.323Z,96.30
2019-04-16T21:43:40.365Z,97.90
2019-04-16T21:46:12.846Z,99.10
2019-04-16T21:48:44.179Z,99.90
2019-04-16T21:51:19.062Z,99.90
2019-04-16T21:53:48.404Z,99.90
2019-04-16T21:56:19.594Z,99.90
2019-04-16T21:58:50.790Z,99.90
2019-04-16T22:01:32.749Z,99.90
2019-04-16T22:04:13.522Z,99.90
2019-04-16T22:06:43.277Z,99.90
2019-04-16T22:09:14.689Z,99.90
2019-04-16T22:11:46.009Z,99.90
2019-04-16T22:14:21.993Z,99.90
2019-04-16T22:16:50.148Z,99.90
2019-04-16T22:19:21.404Z,99.90
2019-04-16T22:21:52.661Z,99.90
2019-04-16T22:24:23.900Z,99.90
2019-04-16T22:26:55.137Z,99.90
2019-04-16T22:29:26.384Z,99.90
2019-04-16T22:31:58.255Z,99.90
2019-04-16T22:34:30.055Z,99.90
2019-04-16T22:37:01.286Z,99.90
2019-04-16T22:39:54.457Z,99.90
2019-04-16T22:42:40.368Z,99.90
2019-04-16T22:45:23.307Z,99.90
2019-04-16T22:47:54.511Z,99.90
2019-04-16T22:50:25.886Z,99.90
2019-04-16T22:52:57.159Z,99.90
2019-04-16T22:55:28.396Z,99.90
2019-04-16T22:58:02.517Z,99.90
2019-04-16T23:00:35.653Z,99.90
2019-04-16T23:03:07.091Z,99.90
2019-04-16T23:05:38.372Z,99.90
2019-04-16T23:08:12.867Z,99.90
2019-04-16T23:10:42.472Z,99.90
2019-04-16T23:13:13.752Z,99.90
2019-04-16T23:15:45.126Z,99.90
2019-04-16T23:18:17.475Z,99.90
2019-04-16T23:20:49.151Z,99.90
2019-04-16T23:23:21.185Z,99.90
2019-04-16T23:25:58.990Z,99.90
2019-04-16T23:28:29.983Z,99.90
2019-04-16T23:31:01.362Z,99.90
2019-04-16T23:33:33.502Z,99.90
2019-04-16T23:36:04.711Z,99.90
2019-04-16T23:38:35.783Z,99.90
2019-04-16T23:41:07.173Z,99.90
2019-04-16T23:44:01.344Z,99.90
2019-04-16T23:46:54.592Z,99.90
2019-04-16T23:49:44.604Z,99.90
2019-04-16T23:52:18.908Z,99.90
2019-04-16T23:55:16.629Z,99.90
2019-04-16T23:58:02.358Z,99.90
